sensor_id;sensor_type;location;lat;lon;timestamp;P1;durP1;ratioP1;P2;durP2;ratioP2
71753;SDS011;59593;51.716;7.016;2022-11-21T00:02:24;24.07;;;18.43;;
71753;SDS011;59593;51.716;7.016;2022-11-21T00:04:49;21.47;;;17.00;;
71753;SDS011;59593;51.716;7.016;2022-11-21T00:07:15;20.93;;;16.57;;
71753;SDS011;59593;51.716;7.016;2022-11-21T00:09:40;22.40;;;16.67;;
71753;SDS011;59593;51.716;7.016;2022-11-21T00:12:06;20.77;;;16.10;;
71753;SDS011;59593;51.716;7.016;2022-11-21T00:14:32;18.80;;;15.37;;
71753;SDS011;59593;51.716;7.016;2022-11-21T00:16:58;18.30;;;14.80;;
71753;SDS011;59593;51.716;7.016;2022-11-21T00:19:24;18.30;;;15.20;;
71753;SDS011;59593;51.716;7.016;2022-11-21T00:21:49;18.00;;;14.00;;
71753;SDS011;59593;51.716;7.016;2022-11-21T00:24:15;18.33;;;14.87;;
71753;SDS011;59593;51.716;7.016;2022-11-21T00:26:40;16.87;;;13.57;;
71753;SDS011;59593;51.716;7.016;2022-11-21T00:29:06;20.07;;;15.67;;
71753;SDS011;59593;51.716;7.016;2022-11-21T00:31:32;20.50;;;16.43;;
71753;SDS011;59593;51.716;7.016;2022-11-21T00:33:57;20.13;;;16.43;;
71753;SDS011;59593;51.716;7.016;2022-11-21T00:36:23;23.00;;;17.07;;
71753;SDS011;59593;51.716;7.016;2022-11-21T00:38:48;23.57;;;18.30;;
71753;SDS011;59593;51.716;7.016;2022-11-21T00:41:14;22.20;;;16.97;;
71753;SDS011;59593;51.716;7.016;2022-11-21T00:43:39;23.83;;;17.60;;
71753;SDS011;59593;51.716;7.016;2022-11-21T00:46:05;24.63;;;18.67;;
71753;SDS011;59593;51.716;7.016;2022-11-21T00:48:31;23.47;;;17.90;;
71753;SDS011;59593;51.716;7.016;2022-11-21T00:50:57;24.73;;;18.33;;
71753;SDS011;59593;51.716;7.016;2022-11-21T00:53:24;24.60;;;18.47;;
71753;SDS011;59593;51.716;7.016;2022-11-21T00:55:49;26.03;;;19.33;;
71753;SDS011;59593;51.716;7.016;2022-11-21T00:58:15;25.67;;;20.03;;
71753;SDS011;59593;51.716;7.016;2022-11-21T01:00:41;24.90;;;19.30;;
71753;SDS011;59593;51.716;7.016;2022-11-21T01:03:06;25.77;;;19.23;;
71753;SDS011;59593;51.716;7.016;2022-11-21T01:05:32;21.27;;;17.93;;
71753;SDS011;59593;51.716;7.016;2022-11-21T01:07:57;21.23;;;16.67;;
71753;SDS011;59593;51.716;7.016;2022-11-21T01:10:23;19.83;;;16.73;;
71753;SDS011;59593;51.716;7.016;2022-11-21T01:12:48;20.10;;;16.57;;
71753;SDS011;59593;51.716;7.016;2022-11-21T01:15:14;20.37;;;15.77;;
71753;SDS011;59593;51.716;7.016;2022-11-21T01:17:40;20.10;;;15.90;;
71753;SDS011;59593;51.716;7.016;2022-11-21T01:20:06;19.93;;;15.70;;
71753;SDS011;59593;51.716;7.016;2022-11-21T01:22:32;19.80;;;16.00;;
71753;SDS011;59593;51.716;7.016;2022-11-21T01:24:58;18.97;;;15.47;;
71753;SDS011;59593;51.716;7.016;2022-11-21T01:27:23;19.97;;;15.93;;
71753;SDS011;59593;51.716;7.016;2022-11-21T01:29:49;18.30;;;15.57;;
71753;SDS011;59593;51.716;7.016;2022-11-21T01:32:16;19.47;;;16.37;;
71753;SDS011;59593;51.716;7.016;2022-11-21T01:34:42;20.20;;;16.23;;
71753;SDS011;59593;51.716;7.016;2022-11-21T01:37:07;20.30;;;16.37;;
71753;SDS011;59593;51.716;7.016;2022-11-21T01:39:33;19.23;;;15.87;;
71753;SDS011;59593;51.716;7.016;2022-11-21T01:41:58;20.77;;;16.73;;
71753;SDS011;59593;51.716;7.016;2022-11-21T01:44:25;19.73;;;16.33;;
71753;SDS011;59593;51.716;7.016;2022-11-21T01:47:09;20.07;;;16.07;;
71753;SDS011;59593;51.716;7.016;2022-11-21T01:49:34;19.60;;;15.90;;
71753;SDS011;59593;51.716;7.016;2022-11-21T01:52:02;21.03;;;16.63;;
71753;SDS011;59593;51.716;7.016;2022-11-21T01:57:25;19.20;;;15.67;;
71753;SDS011;59593;51.716;7.016;2022-11-21T02:00:00;20.70;;;17.00;;
71753;SDS011;59593;51.716;7.016;2022-11-21T02:02:33;20.97;;;16.47;;
71753;SDS011;59593;51.716;7.016;2022-11-21T02:05:04;23.63;;;18.63;;
71753;SDS011;59593;51.716;7.016;2022-11-21T02:07:33;24.37;;;19.03;;
71753;SDS011;59593;51.716;7.016;2022-11-21T02:10:03;26.53;;;19.93;;
71753;SDS011;59593;51.716;7.016;2022-11-21T02:12:31;26.83;;;19.90;;
71753;SDS011;59593;51.716;7.016;2022-11-21T02:15:02;27.47;;;20.63;;
71753;SDS011;59593;51.716;7.016;2022-11-21T02:17:28;27.17;;;20.87;;
71753;SDS011;59593;51.716;7.016;2022-11-21T02:19:55;27.37;;;21.70;;
71753;SDS011;59593;51.716;7.016;2022-11-21T02:25:14;28.70;;;21.37;;
71753;SDS011;59593;51.716;7.016;2022-11-21T02:27:43;27.43;;;19.70;;
71753;SDS011;59593;51.716;7.016;2022-11-21T02:30:10;28.40;;;20.60;;
71753;SDS011;59593;51.716;7.016;2022-11-21T02:32:38;29.37;;;21.30;;
71753;SDS011;59593;51.716;7.016;2022-11-21T02:35:05;30.63;;;21.93;;
71753;SDS011;59593;51.716;7.016;2022-11-21T02:37:33;30.67;;;21.87;;
71753;SDS011;59593;51.716;7.016;2022-11-21T02:40:01;30.57;;;21.60;;
71753;SDS011;59593;51.716;7.016;2022-11-21T02:42:35;32.20;;;22.53;;
71753;SDS011;59593;51.716;7.016;2022-11-21T02:45:12;34.67;;;22.70;;
71753;SDS011;59593;51.716;7.016;2022-11-21T02:47:38;36.67;;;24.03;;
71753;SDS011;59593;51.716;7.016;2022-11-21T02:50:13;36.10;;;23.87;;
71753;SDS011;59593;51.716;7.016;2022-11-21T02:52:51;36.57;;;24.47;;
71753;SDS011;59593;51.716;7.016;2022-11-21T02:55:16;38.83;;;24.57;;
71753;SDS011;59593;51.716;7.016;2022-11-21T02:57:42;35.87;;;24.10;;
71753;SDS011;59593;51.716;7.016;2022-11-21T03:00:08;39.33;;;25.57;;
71753;SDS011;59593;51.716;7.016;2022-11-21T03:02:35;36.10;;;24.13;;
71753;SDS011;59593;51.716;7.016;2022-11-21T03:05:01;34.23;;;22.90;;
71753;SDS011;59593;51.716;7.016;2022-11-21T03:07:27;35.77;;;24.37;;
71753;SDS011;59593;51.716;7.016;2022-11-21T03:09:53;38.63;;;24.80;;
71753;SDS011;59593;51.716;7.016;2022-11-21T03:12:19;41.27;;;25.90;;
71753;SDS011;59593;51.716;7.016;2022-11-21T03:14:44;38.20;;;25.00;;
71753;SDS011;59593;51.716;7.016;2022-11-21T03:17:10;37.67;;;24.13;;
71753;SDS011;59593;51.716;7.016;2022-11-21T03:19:35;35.27;;;24.53;;
71753;SDS011;59593;51.716;7.016;2022-11-21T03:22:01;36.97;;;24.77;;
71753;SDS011;59593;51.716;7.016;2022-11-21T03:24:27;35.83;;;24.27;;
71753;SDS011;59593;51.716;7.016;2022-11-21T03:26:52;34.00;;;23.43;;
71753;SDS011;59593;51.716;7.016;2022-11-21T03:29:18;33.97;;;24.07;;
71753;SDS011;59593;51.716;7.016;2022-11-21T03:31:43;37.37;;;25.20;;
71753;SDS011;59593;51.716;7.016;2022-11-21T03:34:09;38.03;;;24.90;;
71753;SDS011;59593;51.716;7.016;2022-11-21T03:36:35;38.80;;;25.63;;
71753;SDS011;59593;51.716;7.016;2022-11-21T03:39:00;37.87;;;25.17;;
71753;SDS011;59593;51.716;7.016;2022-11-21T03:41:26;37.57;;;25.40;;
71753;SDS011;59593;51.716;7.016;2022-11-21T03:44:04;34.87;;;23.93;;
71753;SDS011;59593;51.716;7.016;2022-11-21T03:46:33;34.53;;;23.73;;
71753;SDS011;59593;51.716;7.016;2022-11-21T03:49:00;35.23;;;23.90;;
71753;SDS011;59593;51.716;7.016;2022-11-21T03:51:26;36.00;;;24.03;;
71753;SDS011;59593;51.716;7.016;2022-11-21T03:53:52;34.87;;;23.57;;
71753;SDS011;59593;51.716;7.016;2022-11-21T03:56:18;35.80;;;24.97;;
71753;SDS011;59593;51.716;7.016;2022-11-21T03:58:43;35.67;;;24.63;;
71753;SDS011;59593;51.716;7.016;2022-11-21T04:01:09;35.50;;;25.03;;
71753;SDS011;59593;51.716;7.016;2022-11-21T04:03:37;37.73;;;25.13;;
71753;SDS011;59593;51.716;7.016;2022-11-21T04:06:03;34.57;;;24.10;;
71753;SDS011;59593;51.716;7.016;2022-11-21T04:08:29;32.33;;;22.93;;
71753;SDS011;59593;51.716;7.016;2022-11-21T04:10:54;33.67;;;23.90;;
71753;SDS011;59593;51.716;7.016;2022-11-21T04:13:20;33.60;;;23.40;;
71753;SDS011;59593;51.716;7.016;2022-11-21T04:15:46;33.43;;;24.53;;
71753;SDS011;59593;51.716;7.016;2022-11-21T04:18:11;36.20;;;24.47;;
71753;SDS011;59593;51.716;7.016;2022-11-21T04:20:38;33.23;;;23.10;;
71753;SDS011;59593;51.716;7.016;2022-11-21T04:23:04;33.20;;;24.10;;
71753;SDS011;59593;51.716;7.016;2022-11-21T04:25:30;34.73;;;24.47;;
71753;SDS011;59593;51.716;7.016;2022-11-21T04:27:56;33.20;;;23.27;;
71753;SDS011;59593;51.716;7.016;2022-11-21T04:30:22;34.07;;;23.50;;
71753;SDS011;59593;51.716;7.016;2022-11-21T04:32:52;32.60;;;23.50;;
71753;SDS011;59593;51.716;7.016;2022-11-21T04:35:18;35.67;;;24.23;;
71753;SDS011;59593;51.716;7.016;2022-11-21T04:37:44;31.90;;;23.30;;
71753;SDS011;59593;51.716;7.016;2022-11-21T04:40:10;31.33;;;22.67;;
71753;SDS011;59593;51.716;7.016;2022-11-21T04:42:36;30.17;;;22.03;;
71753;SDS011;59593;51.716;7.016;2022-11-21T04:45:05;29.00;;;21.00;;
71753;SDS011;59593;51.716;7.016;2022-11-21T04:47:31;31.00;;;21.17;;
71753;SDS011;59593;51.716;7.016;2022-11-21T04:49:56;30.03;;;21.57;;
71753;SDS011;59593;51.716;7.016;2022-11-21T04:52:22;30.87;;;22.10;;
71753;SDS011;59593;51.716;7.016;2022-11-21T04:54:48;30.30;;;21.50;;
71753;SDS011;59593;51.716;7.016;2022-11-21T04:57:13;29.70;;;21.27;;
71753;SDS011;59593;51.716;7.016;2022-11-21T04:59:39;29.77;;;21.07;;
71753;SDS011;59593;51.716;7.016;2022-11-21T05:02:05;30.03;;;21.20;;
71753;SDS011;59593;51.716;7.016;2022-11-21T05:04:30;30.67;;;22.00;;
71753;SDS011;59593;51.716;7.016;2022-11-21T05:06:56;30.10;;;20.97;;
71753;SDS011;59593;51.716;7.016;2022-11-21T05:09:22;32.70;;;22.23;;
71753;SDS011;59593;51.716;7.016;2022-11-21T05:11:47;33.53;;;23.00;;
71753;SDS011;59593;51.716;7.016;2022-11-21T05:14:31;30.70;;;21.60;;
71753;SDS011;59593;51.716;7.016;2022-11-21T05:16:57;34.20;;;22.73;;
71753;SDS011;59593;51.716;7.016;2022-11-21T05:19:22;31.60;;;22.13;;
71753;SDS011;59593;51.716;7.016;2022-11-21T05:21:48;31.33;;;22.83;;
71753;SDS011;59593;51.716;7.016;2022-11-21T05:24:14;30.70;;;22.17;;
71753;SDS011;59593;51.716;7.016;2022-11-21T05:26:40;30.47;;;22.00;;
71753;SDS011;59593;51.716;7.016;2022-11-21T05:29:05;32.40;;;22.83;;
71753;SDS011;59593;51.716;7.016;2022-11-21T05:31:31;33.47;;;23.53;;
71753;SDS011;59593;51.716;7.016;2022-11-21T05:33:56;33.50;;;24.17;;
71753;SDS011;59593;51.716;7.016;2022-11-21T05:36:22;34.63;;;24.63;;
71753;SDS011;59593;51.716;7.016;2022-11-21T05:38:47;33.37;;;23.33;;
71753;SDS011;59593;51.716;7.016;2022-11-21T05:41:13;34.67;;;24.53;;
71753;SDS011;59593;51.716;7.016;2022-11-21T05:43:39;36.87;;;26.00;;
71753;SDS011;59593;51.716;7.016;2022-11-21T05:46:20;36.83;;;25.40;;
71753;SDS011;59593;51.716;7.016;2022-11-21T05:48:48;34.30;;;25.30;;
71753;SDS011;59593;51.716;7.016;2022-11-21T05:51:15;37.03;;;24.93;;
71753;SDS011;59593;51.716;7.016;2022-11-21T05:53:42;34.43;;;23.73;;
71753;SDS011;59593;51.716;7.016;2022-11-21T05:56:11;34.57;;;24.53;;
71753;SDS011;59593;51.716;7.016;2022-11-21T05:58:38;35.67;;;24.03;;
71753;SDS011;59593;51.716;7.016;2022-11-21T06:01:04;33.97;;;24.30;;
71753;SDS011;59593;51.716;7.016;2022-11-21T06:03:33;34.83;;;24.57;;
71753;SDS011;59593;51.716;7.016;2022-11-21T06:06:01;35.43;;;24.37;;
71753;SDS011;59593;51.716;7.016;2022-11-21T06:08:32;36.03;;;24.27;;
71753;SDS011;59593;51.716;7.016;2022-11-21T06:11:12;37.90;;;24.10;;
71753;SDS011;59593;51.716;7.016;2022-11-21T06:13:39;38.80;;;25.83;;
71753;SDS011;59593;51.716;7.016;2022-11-21T06:16:09;36.40;;;24.43;;
71753;SDS011;59593;51.716;7.016;2022-11-21T06:18:44;37.50;;;24.77;;
71753;SDS011;59593;51.716;7.016;2022-11-21T06:21:15;36.87;;;24.90;;
71753;SDS011;59593;51.716;7.016;2022-11-21T06:23:42;38.43;;;23.23;;
71753;SDS011;59593;51.716;7.016;2022-11-21T06:26:10;37.90;;;24.43;;
71753;SDS011;59593;51.716;7.016;2022-11-21T06:28:38;38.27;;;24.57;;
71753;SDS011;59593;51.716;7.016;2022-11-21T06:31:05;38.40;;;24.17;;
71753;SDS011;59593;51.716;7.016;2022-11-21T06:33:33;37.03;;;24.37;;
71753;SDS011;59593;51.716;7.016;2022-11-21T06:36:10;43.70;;;26.27;;
71753;SDS011;59593;51.716;7.016;2022-11-21T06:38:40;47.37;;;26.73;;
71753;SDS011;59593;51.716;7.016;2022-11-21T06:41:10;47.60;;;27.73;;
71753;SDS011;59593;51.716;7.016;2022-11-21T06:43:37;46.77;;;26.87;;
71753;SDS011;59593;51.716;7.016;2022-11-21T06:46:02;50.40;;;28.13;;
71753;SDS011;59593;51.716;7.016;2022-11-21T06:48:29;50.10;;;28.47;;
71753;SDS011;59593;51.716;7.016;2022-11-21T06:50:55;49.53;;;28.33;;
71753;SDS011;59593;51.716;7.016;2022-11-21T06:53:22;44.57;;;26.07;;
71753;SDS011;59593;51.716;7.016;2022-11-21T06:55:47;42.30;;;25.23;;
71753;SDS011;59593;51.716;7.016;2022-11-21T06:58:13;45.57;;;26.17;;
71753;SDS011;59593;51.716;7.016;2022-11-21T07:00:38;48.20;;;26.83;;
71753;SDS011;59593;51.716;7.016;2022-11-21T07:03:04;53.37;;;29.70;;
71753;SDS011;59593;51.716;7.016;2022-11-21T07:05:29;53.07;;;28.57;;
71753;SDS011;59593;51.716;7.016;2022-11-21T07:07:58;53.10;;;28.70;;
71753;SDS011;59593;51.716;7.016;2022-11-21T07:10:25;53.60;;;29.20;;
71753;SDS011;59593;51.716;7.016;2022-11-21T07:12:51;58.50;;;29.27;;
71753;SDS011;59593;51.716;7.016;2022-11-21T07:15:39;53.27;;;28.10;;
71753;SDS011;59593;51.716;7.016;2022-11-21T07:18:04;140.63;;;30.00;;
71753;SDS011;59593;51.716;7.016;2022-11-21T07:20:30;69.70;;;31.27;;
71753;SDS011;59593;51.716;7.016;2022-11-21T07:22:55;119.00;;;32.00;;
71753;SDS011;59593;51.716;7.016;2022-11-21T07:25:21;59.60;;;31.50;;
71753;SDS011;59593;51.716;7.016;2022-11-21T07:27:47;110.90;;;31.13;;
71753;SDS011;59593;51.716;7.016;2022-11-21T07:30:12;80.33;;;29.73;;
71753;SDS011;59593;51.716;7.016;2022-11-21T07:32:38;124.30;;;29.37;;
71753;SDS011;59593;51.716;7.016;2022-11-21T07:35:04;108.37;;;30.63;;
71753;SDS011;59593;51.716;7.016;2022-11-21T07:37:30;75.90;;;28.50;;
71753;SDS011;59593;51.716;7.016;2022-11-21T07:39:56;43.97;;;25.60;;
71753;SDS011;59593;51.716;7.016;2022-11-21T07:42:22;210.60;;;29.33;;
71753;SDS011;59593;51.716;7.016;2022-11-21T07:44:47;320.97;;;30.63;;
71753;SDS011;59593;51.716;7.016;2022-11-21T07:47:13;278.60;;;33.37;;
71753;SDS011;59593;51.716;7.016;2022-11-21T07:49:39;84.43;;;27.37;;
71753;SDS011;59593;51.716;7.016;2022-11-21T07:52:04;420.30;;;36.83;;
71753;SDS011;59593;51.716;7.016;2022-11-21T07:54:30;157.77;;;30.27;;
71753;SDS011;59593;51.716;7.016;2022-11-21T07:56:56;415.93;;;38.13;;
71753;SDS011;59593;51.716;7.016;2022-11-21T07:59:21;473.70;;;42.60;;
71753;SDS011;59593;51.716;7.016;2022-11-21T08:01:47;85.63;;;29.20;;
71753;SDS011;59593;51.716;7.016;2022-11-21T08:04:15;75.90;;;30.20;;
71753;SDS011;59593;51.716;7.016;2022-11-21T08:06:40;62.93;;;28.90;;
71753;SDS011;59593;51.716;7.016;2022-11-21T08:09:06;66.40;;;29.87;;
71753;SDS011;59593;51.716;7.016;2022-11-21T08:11:31;57.07;;;28.40;;
71753;SDS011;59593;51.716;7.016;2022-11-21T08:13:59;63.03;;;29.33;;
71753;SDS011;59593;51.716;7.016;2022-11-21T08:16:24;60.00;;;29.43;;
71753;SDS011;59593;51.716;7.016;2022-11-21T08:18:52;60.57;;;29.27;;
71753;SDS011;59593;51.716;7.016;2022-11-21T08:21:18;68.23;;;31.50;;
71753;SDS011;59593;51.716;7.016;2022-11-21T08:23:43;74.00;;;30.50;;
71753;SDS011;59593;51.716;7.016;2022-11-21T08:26:09;60.27;;;29.40;;
71753;SDS011;59593;51.716;7.016;2022-11-21T08:28:35;61.27;;;29.80;;
71753;SDS011;59593;51.716;7.016;2022-11-21T08:31:04;63.90;;;31.10;;
71753;SDS011;59593;51.716;7.016;2022-11-21T08:33:30;59.10;;;30.70;;
71753;SDS011;59593;51.716;7.016;2022-11-21T08:35:56;64.77;;;30.53;;
71753;SDS011;59593;51.716;7.016;2022-11-21T08:38:22;62.83;;;30.40;;
71753;SDS011;59593;51.716;7.016;2022-11-21T08:40:48;62.07;;;30.53;;
71753;SDS011;59593;51.716;7.016;2022-11-21T08:43:33;61.23;;;30.47;;
71753;SDS011;59593;51.716;7.016;2022-11-21T08:45:59;56.60;;;29.40;;
71753;SDS011;59593;51.716;7.016;2022-11-21T08:48:24;64.40;;;31.13;;
71753;SDS011;59593;51.716;7.016;2022-11-21T08:50:50;61.43;;;30.57;;
71753;SDS011;59593;51.716;7.016;2022-11-21T08:53:15;62.20;;;31.10;;
71753;SDS011;59593;51.716;7.016;2022-11-21T08:55:41;61.03;;;30.40;;
71753;SDS011;59593;51.716;7.016;2022-11-21T08:58:06;61.03;;;31.20;;
71753;SDS011;59593;51.716;7.016;2022-11-21T09:00:32;63.83;;;32.03;;
71753;SDS011;59593;51.716;7.016;2022-11-21T09:02:57;63.00;;;30.73;;
71753;SDS011;59593;51.716;7.016;2022-11-21T09:05:23;61.43;;;30.50;;
71753;SDS011;59593;51.716;7.016;2022-11-21T09:07:54;65.77;;;30.10;;
71753;SDS011;59593;51.716;7.016;2022-11-21T09:10:21;70.17;;;31.90;;
71753;SDS011;59593;51.716;7.016;2022-11-21T09:12:46;62.23;;;31.33;;
71753;SDS011;59593;51.716;7.016;2022-11-21T09:15:12;66.27;;;31.03;;
71753;SDS011;59593;51.716;7.016;2022-11-21T09:18:00;71.47;;;31.07;;
71753;SDS011;59593;51.716;7.016;2022-11-21T09:20:32;65.27;;;30.37;;
71753;SDS011;59593;51.716;7.016;2022-11-21T09:23:02;62.07;;;30.23;;
71753;SDS011;59593;51.716;7.016;2022-11-21T09:25:29;58.83;;;30.23;;
71753;SDS011;59593;51.716;7.016;2022-11-21T09:27:57;56.23;;;28.07;;
71753;SDS011;59593;51.716;7.016;2022-11-21T09:30:24;64.40;;;29.30;;
71753;SDS011;59593;51.716;7.016;2022-11-21T09:32:49;58.40;;;29.63;;
71753;SDS011;59593;51.716;7.016;2022-11-21T09:35:15;57.23;;;28.87;;
71753;SDS011;59593;51.716;7.016;2022-11-21T09:37:41;55.17;;;27.63;;
71753;SDS011;59593;51.716;7.016;2022-11-21T09:40:08;58.77;;;29.17;;
71753;SDS011;59593;51.716;7.016;2022-11-21T09:45:40;56.37;;;28.07;;
71753;SDS011;59593;51.716;7.016;2022-11-21T09:48:12;53.97;;;28.20;;
71753;SDS011;59593;51.716;7.016;2022-11-21T09:50:59;55.07;;;27.80;;
71753;SDS011;59593;51.716;7.016;2022-11-21T09:53:39;52.07;;;27.33;;
71753;SDS011;59593;51.716;7.016;2022-11-21T09:56:13;51.23;;;27.37;;
71753;SDS011;59593;51.716;7.016;2022-11-21T09:58:42;52.03;;;26.93;;
71753;SDS011;59593;51.716;7.016;2022-11-21T10:01:13;50.63;;;25.07;;
71753;SDS011;59593;51.716;7.016;2022-11-21T10:03:50;51.00;;;27.33;;
71753;SDS011;59593;51.716;7.016;2022-11-21T10:06:20;51.53;;;26.27;;
71753;SDS011;59593;51.716;7.016;2022-11-21T10:23:05;58.57;;;29.33;;
71753;SDS011;59593;51.716;7.016;2022-11-21T10:25:44;59.30;;;28.77;;
71753;SDS011;59593;51.716;7.016;2022-11-21T10:28:23;55.40;;;27.97;;
71753;SDS011;59593;51.716;7.016;2022-11-21T10:31:04;58.93;;;29.13;;
71753;SDS011;59593;51.716;7.016;2022-11-21T10:33:35;50.20;;;27.33;;
71753;SDS011;59593;51.716;7.016;2022-11-21T10:38:57;54.00;;;26.73;;
71753;SDS011;59593;51.716;7.016;2022-11-21T10:41:41;50.97;;;26.67;;
71753;SDS011;59593;51.716;7.016;2022-11-21T10:47:21;59.40;;;27.50;;
71753;SDS011;59593;51.716;7.016;2022-11-21T10:50:38;57.30;;;27.03;;
71753;SDS011;59593;51.716;7.016;2022-11-21T10:52:44;54.53;;;27.30;;
71753;SDS011;59593;51.716;7.016;2022-11-21T10:55:13;59.47;;;28.67;;
71753;SDS011;59593;51.716;7.016;2022-11-21T10:57:42;60.67;;;28.77;;
71753;SDS011;59593;51.716;7.016;2022-11-21T11:02:41;58.97;;;29.37;;
71753;SDS011;59593;51.716;7.016;2022-11-21T11:05:27;63.70;;;30.53;;
71753;SDS011;59593;51.716;7.016;2022-11-21T11:08:01;71.67;;;30.73;;
71753;SDS011;59593;51.716;7.016;2022-11-21T11:10:31;73.10;;;31.67;;
71753;SDS011;59593;51.716;7.016;2022-11-21T11:12:59;80.17;;;32.70;;
71753;SDS011;59593;51.716;7.016;2022-11-21T11:15:54;76.33;;;31.67;;
71753;SDS011;59593;51.716;7.016;2022-11-21T11:18:27;71.67;;;31.60;;
71753;SDS011;59593;51.716;7.016;2022-11-21T11:20:53;89.57;;;34.73;;
71753;SDS011;59593;51.716;7.016;2022-11-21T11:23:42;77.00;;;34.23;;
71753;SDS011;59593;51.716;7.016;2022-11-21T11:26:19;88.00;;;33.20;;
71753;SDS011;59593;51.716;7.016;2022-11-21T11:28:47;84.00;;;32.80;;
71753;SDS011;59593;51.716;7.016;2022-11-21T11:31:13;84.97;;;33.87;;
71753;SDS011;59593;51.716;7.016;2022-11-21T11:33:39;89.20;;;34.93;;
71753;SDS011;59593;51.716;7.016;2022-11-21T11:36:14;79.33;;;33.87;;
71753;SDS011;59593;51.716;7.016;2022-11-21T11:38:54;81.87;;;34.27;;
71753;SDS011;59593;51.716;7.016;2022-11-21T11:47:56;74.70;;;33.23;;
71753;SDS011;59593;51.716;7.016;2022-11-21T11:50:59;77.67;;;34.83;;
71753;SDS011;59593;51.716;7.016;2022-11-21T11:53:19;80.87;;;34.67;;
71753;SDS011;59593;51.716;7.016;2022-11-21T11:56:04;81.07;;;35.50;;
71753;SDS011;59593;51.716;7.016;2022-11-21T11:58:39;77.80;;;34.50;;
71753;SDS011;59593;51.716;7.016;2022-11-21T12:01:11;78.47;;;35.00;;
71753;SDS011;59593;51.716;7.016;2022-11-21T12:03:47;73.60;;;33.93;;
71753;SDS011;59593;51.716;7.016;2022-11-21T12:09:24;75.17;;;34.27;;
71753;SDS011;59593;51.716;7.016;2022-11-21T12:12:17;80.47;;;34.07;;
71753;SDS011;59593;51.716;7.016;2022-11-21T12:20:35;67.80;;;32.73;;
71753;SDS011;59593;51.716;7.016;2022-11-21T12:23:10;68.43;;;33.57;;
71753;SDS011;59593;51.716;7.016;2022-11-21T12:25:39;77.07;;;34.50;;
71753;SDS011;59593;51.716;7.016;2022-11-21T12:28:21;68.20;;;33.73;;
71753;SDS011;59593;51.716;7.016;2022-11-21T12:31:34;67.07;;;32.17;;
71753;SDS011;59593;51.716;7.016;2022-11-21T12:37:31;69.27;;;31.63;;
71753;SDS011;59593;51.716;7.016;2022-11-21T12:45:34;73.50;;;33.10;;
71753;SDS011;59593;51.716;7.016;2022-11-21T12:48:10;73.67;;;32.23;;
71753;SDS011;59593;51.716;7.016;2022-11-21T12:57:42;72.90;;;32.87;;
71753;SDS011;59593;51.716;7.016;2022-11-21T13:06:02;68.97;;;32.47;;
71753;SDS011;59593;51.716;7.016;2022-11-21T13:08:31;71.00;;;32.07;;
71753;SDS011;59593;51.716;7.016;2022-11-21T13:16:46;63.73;;;30.60;;
71753;SDS011;59593;51.716;7.016;2022-11-21T13:25:11;54.90;;;28.40;;
71753;SDS011;59593;51.716;7.016;2022-11-21T13:30:46;50.33;;;27.17;;
71753;SDS011;59593;51.716;7.016;2022-11-21T13:47:02;52.63;;;27.67;;
71753;SDS011;59593;51.716;7.016;2022-11-21T13:52:25;52.03;;;29.03;;
71753;SDS011;59593;51.716;7.016;2022-11-21T14:08:30;55.53;;;30.93;;
71753;SDS011;59593;51.716;7.016;2022-11-21T14:10:55;61.27;;;31.53;;
71753;SDS011;59593;51.716;7.016;2022-11-21T14:18:29;65.73;;;34.73;;
71753;SDS011;59593;51.716;7.016;2022-11-21T14:20:57;65.83;;;33.77;;
71753;SDS011;59593;51.716;7.016;2022-11-21T14:23:25;63.27;;;33.60;;
71753;SDS011;59593;51.716;7.016;2022-11-21T14:25:54;71.27;;;35.53;;
71753;SDS011;59593;51.716;7.016;2022-11-21T14:28:29;71.07;;;35.97;;
71753;SDS011;59593;51.716;7.016;2022-11-21T14:31:00;76.20;;;36.37;;
71753;SDS011;59593;51.716;7.016;2022-11-21T14:33:37;75.43;;;35.37;;
71753;SDS011;59593;51.716;7.016;2022-11-21T14:38:42;75.80;;;36.57;;
71753;SDS011;59593;51.716;7.016;2022-11-21T14:43:59;80.80;;;36.60;;
71753;SDS011;59593;51.716;7.016;2022-11-21T14:46:44;75.97;;;35.50;;
71753;SDS011;59593;51.716;7.016;2022-11-21T14:49:21;76.30;;;35.23;;
71753;SDS011;59593;51.716;7.016;2022-11-21T14:51:49;70.30;;;34.47;;
71753;SDS011;59593;51.716;7.016;2022-11-21T14:54:47;73.63;;;34.13;;
71753;SDS011;59593;51.716;7.016;2022-11-21T14:57:19;80.07;;;34.37;;
71753;SDS011;59593;51.716;7.016;2022-11-21T14:59:58;96.90;;;34.33;;
71753;SDS011;59593;51.716;7.016;2022-11-21T15:02:26;135.67;;;38.67;;
71753;SDS011;59593;51.716;7.016;2022-11-21T15:04:53;142.40;;;38.63;;
71753;SDS011;59593;51.716;7.016;2022-11-21T15:07:28;158.23;;;38.30;;
71753;SDS011;59593;51.716;7.016;2022-11-21T15:09:59;96.20;;;40.37;;
71753;SDS011;59593;51.716;7.016;2022-11-21T15:12:38;167.47;;;34.47;;
71753;SDS011;59593;51.716;7.016;2022-11-21T15:17:48;101.30;;;33.67;;
71753;SDS011;59593;51.716;7.016;2022-11-21T15:20:21;260.93;;;38.93;;
71753;SDS011;59593;51.716;7.016;2022-11-21T15:22:47;135.73;;;34.17;;
71753;SDS011;59593;51.716;7.016;2022-11-21T15:25:14;76.17;;;33.37;;
71753;SDS011;59593;51.716;7.016;2022-11-21T15:27:43;241.27;;;43.90;;
71753;SDS011;59593;51.716;7.016;2022-11-21T15:38:30;79.07;;;36.80;;
71753;SDS011;59593;51.716;7.016;2022-11-21T15:49:03;67.70;;;33.80;;
71753;SDS011;59593;51.716;7.016;2022-11-21T15:51:34;64.33;;;32.00;;
71753;SDS011;59593;51.716;7.016;2022-11-21T15:54:01;58.40;;;31.07;;
71753;SDS011;59593;51.716;7.016;2022-11-21T15:56:27;57.93;;;31.53;;
71753;SDS011;59593;51.716;7.016;2022-11-21T15:58:53;56.07;;;30.70;;
71753;SDS011;59593;51.716;7.016;2022-11-21T16:01:22;55.67;;;29.50;;
71753;SDS011;59593;51.716;7.016;2022-11-21T16:03:51;57.10;;;29.57;;
71753;SDS011;59593;51.716;7.016;2022-11-21T16:06:18;47.57;;;27.70;;
71753;SDS011;59593;51.716;7.016;2022-11-21T16:08:44;48.17;;;28.43;;
71753;SDS011;59593;51.716;7.016;2022-11-21T16:11:21;50.43;;;28.20;;
71753;SDS011;59593;51.716;7.016;2022-11-21T16:13:52;47.83;;;28.33;;
71753;SDS011;59593;51.716;7.016;2022-11-21T16:16:20;47.77;;;25.50;;
71753;SDS011;59593;51.716;7.016;2022-11-21T16:18:48;47.67;;;27.93;;
71753;SDS011;59593;51.716;7.016;2022-11-21T16:21:14;47.93;;;27.43;;
71753;SDS011;59593;51.716;7.016;2022-11-21T16:23:40;45.17;;;27.33;;
71753;SDS011;59593;51.716;7.016;2022-11-21T16:26:06;45.30;;;26.50;;
71753;SDS011;59593;51.716;7.016;2022-11-21T16:28:36;50.33;;;26.37;;
71753;SDS011;59593;51.716;7.016;2022-11-21T16:31:02;43.47;;;25.23;;
71753;SDS011;59593;51.716;7.016;2022-11-21T16:33:29;43.93;;;25.77;;
71753;SDS011;59593;51.716;7.016;2022-11-21T16:35:56;41.80;;;25.53;;
71753;SDS011;59593;51.716;7.016;2022-11-21T16:38:22;41.03;;;25.40;;
71753;SDS011;59593;51.716;7.016;2022-11-21T16:40:59;44.17;;;24.73;;
71753;SDS011;59593;51.716;7.016;2022-11-21T16:43:29;40.27;;;25.27;;
71753;SDS011;59593;51.716;7.016;2022-11-21T16:45:55;48.27;;;27.10;;
71753;SDS011;59593;51.716;7.016;2022-11-21T16:48:31;42.60;;;25.50;;
71753;SDS011;59593;51.716;7.016;2022-11-21T16:51:18;46.97;;;26.17;;
71753;SDS011;59593;51.716;7.016;2022-11-21T16:53:44;44.37;;;26.40;;
71753;SDS011;59593;51.716;7.016;2022-11-21T16:56:11;46.63;;;25.23;;